createdAt,value
2023-01-06T00:01:43.297Z,96325.92
2023-01-06T00:04:11.462Z,96329.69
2023-01-06T00:06:39.587Z,96332.30
2023-01-06T00:09:07.668Z,96336.86
2023-01-06T00:11:37.251Z,96342.86
2023-01-06T00:14:05.741Z,96335.23
2023-01-06T00:16:33.933Z,96340.63
2023-01-06T00:19:02.184Z,96343.44
2023-01-06T00:21:30.428Z,96343.67
2023-01-06T00:23:58.604Z,96350.87
2023-01-06T00:26:26.784Z,96355.01
2023-01-06T00:28:56.620Z,96362.17
2023-01-06T00:31:27.147Z,96363.17
2023-01-06T00:33:57.677Z,96373.55
2023-01-06T00:36:26.119Z,96375.19
2023-01-06T00:38:54.981Z,96378.09
2023-01-06T00:41:42.318Z,96377.05
2023-01-06T00:44:10.706Z,96377.29
2023-01-06T00:46:39.021Z,96375.11
2023-01-06T00:49:07.950Z,96382.52
2023-01-06T00:51:38.905Z,96389.02
2023-01-06T00:54:09.420Z,96387.28
2023-01-06T00:56:43.202Z,96390.44
2023-01-06T00:59:13.700Z,96392.16
2023-01-06T01:01:43.271Z,96400.71
2023-01-06T01:04:12.011Z,96402.53
2023-01-06T01:06:42.952Z,96405.27
2023-01-06T01:09:22.281Z,96409.48
2023-01-06T01:12:12.811Z,96408.02
2023-01-06T01:14:49.877Z,96410.70
2023-01-06T01:17:30.167Z,96417.84
2023-01-06T01:20:00.003Z,96420.69
2023-01-06T01:22:31.108Z,96427.62
2023-01-06T01:24:59.174Z,96432.73
2023-01-06T01:27:27.331Z,96432.75
2023-01-06T01:29:55.650Z,96436.29
2023-01-06T01:32:24.524Z,96431.40
2023-01-06T01:34:52.667Z,96435.64
2023-01-06T01:37:21.356Z,96439.11
2023-01-06T01:39:49.473Z,96439.14
2023-01-06T01:42:20.909Z,96432.23
2023-01-06T01:44:54.485Z,96443.61
2023-01-06T01:47:37.325Z,96445.89
2023-01-06T01:50:31.668Z,96447.07
2023-01-06T01:53:07.871Z,96450.75
2023-01-06T01:55:37.033Z,96454.72
2023-01-06T01:58:17.818Z,96457.02
2023-01-06T02:00:46.364Z,96461.23
2023-01-06T02:03:16.003Z,96464.66
2023-01-06T02:05:52.539Z,96470.25
2023-01-06T02:08:39.793Z,96479.29
2023-01-06T02:11:12.721Z,96480.68
2023-01-06T02:13:47.658Z,96484.64
2023-01-06T02:16:43.373Z,96490.25
2023-01-06T02:19:23.655Z,96490.89
2023-01-06T02:21:52.335Z,96488.08
2023-01-06T02:24:55.198Z,96487.84
2023-01-06T02:27:41.800Z,96489.91
2023-01-06T02:30:12.799Z,96494.86
2023-01-06T02:33:02.898Z,96491.79
2023-01-06T02:35:55.997Z,96490.88
2023-01-06T02:38:30.713Z,96489.08
2023-01-06T02:41:04.713Z,96487.70
2023-01-06T02:44:17.474Z,96495.98
2023-01-06T02:47:14.000Z,96496.92
2023-01-06T02:49:46.995Z,96494.77
2023-01-06T02:52:20.842Z,96490.01
2023-01-06T02:55:01.103Z,96494.17
2023-01-06T02:57:33.951Z,96495.46
2023-01-06T03:00:28.959Z,96500.17
2023-01-06T03:03:00.680Z,96501.24
2023-01-06T03:05:30.891Z,96497.95
2023-01-06T03:08:03.447Z,96503.02
2023-01-06T03:10:33.871Z,96501.31
2023-01-06T03:13:09.435Z,96501.71
2023-01-06T03:15:37.651Z,96504.11
2023-01-06T03:18:06.315Z,96498.12
2023-01-06T03:20:36.572Z,96500.48
2023-01-06T03:23:05.363Z,96503.91
2023-01-06T03:25:33.490Z,96502.73
2023-01-06T03:28:01.568Z,96505.98
2023-01-06T03:30:43.287Z,96507.70
2023-01-06T03:33:59.626Z,96510.32
2023-01-06T03:36:43.098Z,96520.75
2023-01-06T03:39:29.947Z,96526.33
2023-01-06T03:42:41.364Z,96522.80
2023-01-06T03:45:50.843Z,96524.73
2023-01-06T03:48:32.301Z,96519.24
2023-01-06T03:51:05.486Z,96518.75
2023-01-06T03:53:49.280Z,96521.50
2023-01-06T03:56:37.742Z,96525.42
2023-01-06T03:59:11.441Z,96525.11
2023-01-06T04:01:43.663Z,96526.83
2023-01-06T04:04:12.200Z,96524.80
2023-01-06T04:06:40.271Z,96521.56
2023-01-06T04:09:08.416Z,96518.65
2023-01-06T04:11:56.879Z,96516.30
2023-01-06T04:14:25.302Z,96517.05
2023-01-06T04:16:53.741Z,96524.61
2023-01-06T04:19:22.405Z,96527.64
2023-01-06T04:21:50.482Z,96532.66
2023-01-06T04:24:18.906Z,96541.41
2023-01-06T04:26:47.796Z,96545.89
2023-01-06T04:29:16.010Z,96542.08
2023-01-06T04:31:44.143Z,96550.83
2023-01-06T04:34:12.439Z,96554.88
2023-01-06T04:36:41.345Z,96557.85
2023-01-06T04:39:09.623Z,96555.95
2023-01-06T04:41:37.848Z,96562.86
2023-01-06T04:44:05.944Z,96562.02
2023-01-06T04:46:34.541Z,96570.37
2023-01-06T04:49:02.641Z,96572.46
2023-01-06T04:51:30.791Z,96568.77
2023-01-06T04:53:59.003Z,96566.92
2023-01-06T04:56:27.112Z,96562.60
2023-01-06T04:58:57.127Z,96554.23
2023-01-06T05:01:26.933Z,96559.56
2023-01-06T05:03:55.340Z,96561.44
2023-01-06T05:06:23.465Z,96559.23
2023-01-06T05:08:51.699Z,96557.36
2023-01-06T05:11:25.314Z,96560.86
2023-01-06T05:13:53.851Z,96563.03
2023-01-06T05:16:28.679Z,96564.65
2023-01-06T05:18:57.426Z,96568.80
2023-01-06T05:21:27.318Z,96570.98
2023-01-06T05:23:56.034Z,96579.05
2023-01-06T05:26:27.375Z,96579.90
2023-01-06T05:28:56.552Z,96582.75
2023-01-06T05:31:24.644Z,96585.20
2023-01-06T05:33:52.809Z,96589.39
2023-01-06T05:36:20.869Z,96586.83
2023-01-06T05:38:53.769Z,96591.84
2023-01-06T05:41:22.242Z,96598.52
2023-01-06T05:43:50.432Z,96598.36
2023-01-06T05:46:18.672Z,96600.81
2023-01-06T05:48:46.897Z,96602.30
2023-01-06T05:51:16.617Z,96606.77
2023-01-06T05:53:46.897Z,96603.05
2023-01-06T05:56:18.347Z,96608.47
2023-01-06T05:58:49.038Z,96608.61
2023-01-06T06:01:21.792Z,96612.33
2023-01-06T06:03:51.129Z,96612.31
2023-01-06T06:06:21.711Z,96611.48
2023-01-06T06:08:50.261Z,96612.42
2023-01-06T06:11:20.133Z,96610.35
2023-01-06T06:13:53.938Z,96607.04
2023-01-06T06:16:25.574Z,96607.23
2023-01-06T06:18:56.149Z,96606.89
2023-01-06T06:21:29.861Z,96608.65
2023-01-06T06:23:59.744Z,96612.34
2023-01-06T06:26:28.991Z,96614.28
2023-01-06T06:28:57.170Z,96618.57
2023-01-06T06:31:27.929Z,96623.09
2023-01-06T06:33:59.106Z,96630.77
2023-01-06T06:36:28.442Z,96631.36
2023-01-06T06:38:57.027Z,96633.75
2023-01-06T06:41:26.247Z,96636.13
2023-01-06T06:43:54.428Z,96639.63
2023-01-06T06:46:23.527Z,96637.61
2023-01-06T06:48:52.021Z,96637.21
2023-01-06T06:51:23.149Z,96636.39
2023-01-06T06:53:51.516Z,96636.60
2023-01-06T06:56:21.631Z,96641.43
2023-01-06T06:58:50.265Z,96635.28
2023-01-06T07:01:20.999Z,96637.23
2023-01-06T07:03:49.416Z,96636.61
2023-01-06T07:06:23.074Z,96644.43
2023-01-06T07:08:51.834Z,96650.98
2023-01-06T07:11:21.338Z,96656.98
2023-01-06T07:13:50.038Z,96670.24
2023-01-06T07:16:20.020Z,96673.91
2023-01-06T07:18:48.120Z,96671.83
2023-01-06T07:21:16.215Z,96677.05
2023-01-06T07:23:45.072Z,96677.08
2023-01-06T07:26:15.765Z,96677.66
2023-01-06T07:28:44.076Z,96678.39
2023-01-06T07:31:12.336Z,96678.77
2023-01-06T07:33:40.613Z,96685.45
2023-01-06T07:36:09.184Z,96684.95
2023-01-06T07:38:37.298Z,96686.45
2023-01-06T07:41:05.437Z,96681.33
2023-01-06T07:43:33.562Z,96675.84
2023-01-06T07:46:01.721Z,96673.66
2023-01-06T07:48:29.807Z,96677.62
2023-01-06T07:50:59.029Z,96682.67
2023-01-06T07:53:27.589Z,96682.98
2023-01-06T07:55:55.940Z,96688.13
2023-01-06T07:58:24.374Z,96688.64
2023-01-06T08:01:09.183Z,96690.73
2023-01-06T08:07:34.900Z,96702.98
2023-01-06T08:10:04.440Z,96709.27
2023-01-06T08:12:36.117Z,96713.40
2023-01-06T08:15:05.045Z,96717.48
2023-01-06T08:17:33.304Z,96715.04
2023-01-06T08:20:01.616Z,96711.58
2023-01-06T08:22:29.824Z,96713.14
2023-01-06T08:24:57.990Z,96716.38
2023-01-06T08:27:27.644Z,96714.26
2023-01-06T08:29:55.990Z,96718.63
2023-01-06T08:32:25.223Z,96723.17
2023-01-06T08:34:53.373Z,96721.52
2023-01-06T08:37:25.748Z,96711.70
2023-01-06T08:39:56.329Z,96712.37
2023-01-06T08:42:24.632Z,96715.54
2023-01-06T08:44:52.922Z,96715.33
2023-01-06T08:47:23.719Z,96716.89
2023-01-06T08:49:51.843Z,96715.63
2023-01-06T08:52:20.180Z,96713.15
2023-01-06T08:54:48.280Z,96717.05
2023-01-06T08:57:16.509Z,96720.69
2023-01-06T08:59:44.568Z,96717.17
2023-01-06T09:02:12.911Z,96715.77
2023-01-06T09:04:41.201Z,96716.61
2023-01-06T09:07:09.469Z,96714.95
2023-01-06T09:09:37.625Z,96715.86
2023-01-06T09:12:07.527Z,96715.69
2023-01-06T09:14:36.307Z,96715.23
2023-01-06T09:17:04.511Z,96709.98
2023-01-06T09:19:32.630Z,96708.95
2023-01-06T09:22:01.190Z,96709.83
2023-01-06T09:24:29.519Z,96711.06
2023-01-06T09:26:57.681Z,96706.26
2023-01-06T09:29:25.934Z,96713.65
2023-01-06T09:31:54.344Z,96716.15
2023-01-06T09:34:22.598Z,96713.08
2023-01-06T09:36:50.901Z,96711.48
2023-01-06T09:39:19.607Z,96712.85
2023-01-06T09:42:06.766Z,96716.22
2023-01-06T09:44:50.372Z,96709.81
2023-01-06T09:47:23.618Z,96707.65
2023-01-06T09:50:23.084Z,96700.33
2023-01-06T09:52:59.020Z,96691.44
2023-01-06T09:55:45.488Z,96685.45
2023-01-06T09:58:23.208Z,96679.86
2023-01-06T10:00:53.620Z,96677.44
2023-01-06T10:03:26.774Z,96672.73
2023-01-06T10:06:03.584Z,96666.42
2023-01-06T10:08:47.073Z,96658.56
2023-01-06T10:11:25.655Z,96650.23
2023-01-06T10:14:11.392Z,96652.80
2023-01-06T10:17:01.212Z,96655.59
2023-01-06T10:19:44.547Z,96652.27
2023-01-06T10:22:24.325Z,96647.52
2023-01-06T10:24:55.644Z,96647.73
2023-01-06T10:27:27.014Z,96644.32
2023-01-06T10:29:58.864Z,96641.11
2023-01-06T10:32:32.623Z,96631.18
2023-01-06T10:35:01.988Z,96629.04
2023-01-06T10:37:39.048Z,96621.48
2023-01-06T10:40:23.543Z,96622.50
2023-01-06T10:43:06.906Z,96621.77
2023-01-06T10:45:46.478Z,96615.81
2023-01-06T10:48:21.219Z,96614.61
2023-01-06T10:50:49.466Z,96608.58
2023-01-06T10:53:17.676Z,96608.14
2023-01-06T10:55:56.406Z,96606.92
2023-01-06T10:58:30.809Z,96606.67
2023-01-06T11:01:11.114Z,96603.90
2023-01-06T11:03:45.939Z,96604.52
2023-01-06T11:06:28.438Z,96603.52
2023-01-06T11:08:57.433Z,96604.84
2023-01-06T11:11:28.612Z,96600.44
2023-01-06T11:14:02.602Z,96596.70
2023-01-06T11:16:33.496Z,96595.80
2023-01-06T11:19:05.365Z,96596.62
2023-01-06T11:21:42.215Z,96594.70
2023-01-06T11:24:22.603Z,96592.38
2023-01-06T11:27:02.357Z,96590.86
2023-01-06T11:29:35.734Z,96590.42
2023-01-06T11:32:14.875Z,96592.09
2023-01-06T11:34:59.212Z,96591.63
2023-01-06T11:37:39.929Z,96593.58
2023-01-06T11:40:32.764Z,96598.12
2023-01-06T11:43:12.462Z,96601.25
2023-01-06T11:45:49.405Z,96603.49
2023-01-06T11:48:18.983Z,96601.79
2023-01-06T11:51:01.430Z,96596.77
2023-01-06T11:53:31.207Z,96590.80
2023-01-06T11:56:20.994Z,96593.08
2023-01-06T11:59:09.853Z,96597.35
2023-01-06T12:02:12.187Z,96588.66
2023-01-06T12:04:50.385Z,96587.07
2023-01-06T12:07:26.935Z,96582.31
2023-01-06T12:10:02.956Z,96579.13
2023-01-06T12:12:31.401Z,96573.23
2023-01-06T12:15:01.403Z,96573.91
2023-01-06T12:17:52.168Z,96571.11
2023-01-06T12:20:43.683Z,96555.04
2023-01-06T12:23:40.267Z,96540.33
2023-01-06T12:26:28.510Z,96543.56
2023-01-06T12:28:58.995Z,96539.56
2023-01-06T12:31:40.483Z,96535.93
2023-01-06T12:34:20.216Z,96540.21
2023-01-06T12:37:01.800Z,96543.00
2023-01-06T12:39:42.322Z,96546.81
2023-01-06T12:42:22.495Z,96544.02
2023-01-06T12:45:10.788Z,96554.16
2023-01-06T12:47:54.169Z,96546.64
2023-01-06T12:50:35.257Z,96540.64
2023-01-06T12:53:20.681Z,96536.88
2023-01-06T12:56:04.496Z,96538.66
2023-01-06T12:58:55.556Z,96539.48
2023-01-06T13:01:36.713Z,96529.16
2023-01-06T13:04:42.969Z,96527.00
2023-01-06T13:07:39.798Z,96529.70
2023-01-06T13:10:33.037Z,96521.98
2023-01-06T13:13:22.849Z,96515.75
2023-01-06T13:15:53.412Z,96512.10
2023-01-06T13:18:31.517Z,96518.67
2023-01-06T13:21:09.317Z,96510.65
2023-01-06T13:23:52.488Z,96502.91
2023-01-06T13:27:10.315Z,96502.79
2023-01-06T13:29:38.375Z,96500.66
2023-01-06T13:32:19.198Z,96500.21
2023-01-06T13:35:18.280Z,96494.92
2023-01-06T13:38:24.649Z,96494.27
2023-01-06T13:40:57.059Z,96495.88
2023-01-06T13:43:28.756Z,96497.58
2023-01-06T13:46:05.039Z,96491.19
2023-01-06T13:48:38.206Z,96475.96
2023-01-06T13:51:11.333Z,96467.21
2023-01-06T13:53:42.145Z,96460.59
2023-01-06T13:56:12.734Z,96454.17
2023-01-06T13:58:49.315Z,96454.71
2023-01-06T14:01:20.565Z,96455.58
2023-01-06T14:03:51.358Z,96464.45
2023-01-06T14:06:22.332Z,96462.85
2023-01-06T14:08:54.943Z,96463.69
2023-01-06T14:11:36.089Z,96448.95
2023-01-06T14:14:08.163Z,96437.52
2023-01-06T14:16:47.282Z,96437.73
2023-01-06T14:19:30.234Z,96435.73
2023-01-06T14:22:19.159Z,96431.95
2023-01-06T14:24:53.419Z,96430.14
2023-01-06T14:28:00.595Z,96420.77
2023-01-06T14:30:32.346Z,96428.40
2023-01-06T14:33:25.273Z,96427.31
2023-01-06T14:36:07.446Z,96417.55
2023-01-06T14:38:44.187Z,96429.38
2023-01-06T14:41:32.970Z,96429.70
2023-01-06T14:44:15.695Z,96427.06
2023-01-06T14:46:54.743Z,96431.88
2023-01-06T14:49:30.067Z,96429.96
2023-01-06T14:52:00.603Z,96423.91
2023-01-06T14:54:37.067Z,96419.34
2023-01-06T14:57:06.050Z,96426.04
2023-01-06T14:59:35.102Z,96419.88
2023-01-06T15:02:16.470Z,96420.15
2023-01-06T15:04:44.806Z,96417.11
2023-01-06T15:07:19.200Z,96412.52
2023-01-06T15:09:49.682Z,96419.95
2023-01-06T15:12:25.482Z,96424.16
2023-01-06T15:14:54.284Z,96421.96
2023-01-06T15:17:23.232Z,96416.45
2023-01-06T15:19:53.005Z,96410.17
2023-01-06T15:22:25.084Z,96404.36
2023-01-06T15:24:54.869Z,96410.98
2023-01-06T15:27:22.943Z,96411.80
2023-01-06T15:29:53.624Z,96409.27
2023-01-06T15:32:27.229Z,96410.19
2023-01-06T15:34:58.409Z,96404.45
2023-01-06T15:37:31.283Z,96404.48
2023-01-06T15:39:59.847Z,96412.40
2023-01-06T15:42:28.360Z,96417.20
2023-01-06T15:45:05.525Z,96415.96
2023-01-06T15:47:39.098Z,96409.46
2023-01-06T15:50:16.960Z,96405.98
2023-01-06T15:52:52.314Z,96404.45
2023-01-06T15:55:29.263Z,96404.27
2023-01-06T15:58:08.898Z,96407.02
2023-01-06T16:00:48.208Z,96407.71
2023-01-06T16:03:22.292Z,96397.98
2023-01-06T16:06:00.150Z,96395.52
2023-01-06T16:08:31.175Z,96388.52
2023-01-06T16:11:17.515Z,96385.67
2023-01-06T16:13:48.719Z,96381.82
2023-01-06T16:16:16.870Z,96384.05
2023-01-06T16:18:45.833Z,96381.36
2023-01-06T16:21:16.879Z,96379.84
2023-01-06T16:24:05.628Z,96377.27
2023-01-06T16:26:41.865Z,96376.27
2023-01-06T16:29:42.715Z,96368.06
2023-01-06T16:32:40.852Z,96366.66
2023-01-06T16:35:15.168Z,96361.30
2023-01-06T16:37:44.688Z,96367.41
2023-01-06T16:40:15.177Z,96364.27
2023-01-06T16:42:44.131Z,96361.73
2023-01-06T16:45:32.545Z,96357.45
2023-01-06T16:48:00.969Z,96357.23
2023-01-06T16:50:38.462Z,96357.63
2023-01-06T16:53:18.690Z,96357.63
2023-01-06T16:55:55.602Z,96358.44
2023-01-06T16:58:27.341Z,96353.02
2023-01-06T17:00:58.420Z,96348.56
2023-01-06T17:03:30.201Z,96350.23
2023-01-06T17:05:58.289Z,96352.21
2023-01-06T17:08:38.040Z,96351.42
2023-01-06T17:11:16.598Z,96352.20
2023-01-06T17:13:57.532Z,96349.45
2023-01-06T17:16:31.072Z,96349.02
2023-01-06T17:19:14.747Z,96346.77
2023-01-06T17:21:42.832Z,96348.75
2023-01-06T17:24:23.605Z,96347.48
2023-01-06T17:26:58.122Z,96349.13
2023-01-06T17:29:34.070Z,96347.98
2023-01-06T17:32:06.330Z,96354.16
2023-01-06T17:34:37.132Z,96352.13
2023-01-06T17:37:31.657Z,96349.98
2023-01-06T17:39:59.788Z,96353.69
2023-01-06T17:42:32.573Z,96349.77
2023-01-06T17:45:01.318Z,96354.52
2023-01-06T17:47:40.771Z,96359.26
2023-01-06T17:50:41.660Z,96360.14
2023-01-06T17:53:58.227Z,96362.00
2023-01-06T17:56:26.911Z,96356.99
2023-01-06T17:58:54.908Z,96352.62
2023-01-06T18:01:29.068Z,96349.79
2023-01-06T18:04:00.031Z,96353.66
2023-01-06T18:06:37.269Z,96355.48
2023-01-06T18:09:05.322Z,96357.11
2023-01-06T18:11:38.998Z,96353.65
2023-01-06T18:14:21.869Z,96356.29
2023-01-06T18:16:54.386Z,96357.52
2023-01-06T18:19:27.316Z,96353.95
2023-01-06T18:21:55.500Z,96354.67
2023-01-06T18:24:32.812Z,96354.53
2023-01-06T18:27:18.292Z,96350.03
2023-01-06T18:29:46.877Z,96349.22
2023-01-06T18:32:21.128Z,96350.26
2023-01-06T18:34:54.446Z,96347.17
2023-01-06T18:37:25.566Z,96349.66
2023-01-06T18:39:58.254Z,96352.21
2023-01-06T18:42:30.865Z,96347.61
2023-01-06T18:45:07.694Z,96347.23
2023-01-06T18:47:38.181Z,96348.84
2023-01-06T18:50:24.826Z,96348.91
2023-01-06T18:53:14.977Z,96337.14
2023-01-06T18:55:55.137Z,96322.58
2023-01-06T18:58:52.572Z,96319.48
2023-01-06T19:01:23.528Z,96322.98
2023-01-06T19:04:03.849Z,96325.10
2023-01-06T19:06:47.109Z,96317.89
2023-01-06T19:09:19.665Z,96322.02
2023-01-06T19:11:55.433Z,96314.99
2023-01-06T19:14:23.453Z,96315.73
2023-01-06T19:16:54.994Z,96319.40
2023-01-06T19:19:43.675Z,96317.15
2023-01-06T19:22:18.169Z,96320.96
2023-01-06T19:25:00.604Z,96320.63
2023-01-06T19:27:48.740Z,96328.17
2023-01-06T19:30:32.726Z,96327.97
2023-01-06T19:33:16.483Z,96333.02
2023-01-06T19:35:45.097Z,96330.77
2023-01-06T19:38:25.208Z,96333.00
2023-01-06T19:40:55.573Z,96335.23
2023-01-06T19:43:27.970Z,96336.17
2023-01-06T19:45:56.824Z,96334.87
2023-01-06T19:48:41.495Z,96335.08
2023-01-06T19:51:23.228Z,96337.16
2023-01-06T19:53:56.669Z,96334.73
2023-01-06T19:56:29.318Z,96344.48
2023-01-06T19:59:05.797Z,96346.45
2023-01-06T20:01:34.020Z,96347.02
2023-01-06T20:04:02.783Z,96350.73
2023-01-06T20:06:30.815Z,96345.09
2023-01-06T20:08:58.848Z,96349.61
2023-01-06T20:11:28.033Z,96352.05
2023-01-06T20:13:56.144Z,96352.15
2023-01-06T20:16:24.262Z,96350.91
2023-01-06T20:18:52.634Z,96350.52
2023-01-06T20:21:20.819Z,96352.80
2023-01-06T20:23:48.859Z,96354.65
2023-01-06T20:26:16.993Z,96356.64
2023-01-06T20:28:45.051Z,96353.66
2023-01-06T20:31:13.077Z,96358.16
2023-01-06T20:33:41.128Z,96352.84
2023-01-06T20:36:09.354Z,96351.98
2023-01-06T20:38:37.518Z,96351.41
2023-01-06T20:41:06.785Z,96350.53
2023-01-06T20:43:34.985Z,96355.96
2023-01-06T20:46:03.164Z,96356.82
2023-01-06T20:48:31.356Z,96355.05
2023-01-06T20:50:59.507Z,96358.85
2023-01-06T20:53:27.793Z,96357.75
2023-01-06T20:55:56.052Z,96358.78
2023-01-06T20:58:25.017Z,96357.48
2023-01-06T21:00:53.194Z,96364.29
2023-01-06T21:03:21.273Z,96364.69
2023-01-06T21:05:49.409Z,96363.79
2023-01-06T21:08:17.524Z,96369.21
2023-01-06T21:10:45.693Z,96377.63
2023-01-06T21:13:15.654Z,96373.20
2023-01-06T21:15:43.784Z,96372.52
2023-01-06T21:18:14.593Z,96370.70
2023-01-06T21:20:42.625Z,96375.47
2023-01-06T21:23:11.929Z,96368.40
2023-01-06T21:25:39.947Z,96371.20
2023-01-06T21:28:07.984Z,96372.86
2023-01-06T21:30:39.104Z,96377.13
2023-01-06T21:33:07.262Z,96380.59
2023-01-06T21:35:35.367Z,96381.02
2023-01-06T21:38:05.467Z,96384.77
2023-01-06T21:40:34.175Z,96381.11
2023-01-06T21:43:11.493Z,96384.36
2023-01-06T21:45:42.209Z,96387.61
2023-01-06T21:48:12.532Z,96389.84
2023-01-06T21:50:46.892Z,96392.54
2023-01-06T21:53:14.972Z,96394.66
2023-01-06T21:55:43.056Z,96399.48
2023-01-06T21:58:11.328Z,96400.05
2023-01-06T22:00:39.470Z,96399.19
2023-01-06T22:03:07.589Z,96400.48
2023-01-06T22:05:35.918Z,96401.27
2023-01-06T22:08:05.968Z,96402.45
2023-01-06T22:10:37.093Z,96407.70
2023-01-06T22:13:07.424Z,96411.04
2023-01-06T22:15:35.676Z,96406.85
2023-01-06T22:18:05.083Z,96411.77
2023-01-06T22:20:35.339Z,96421.31
2023-01-06T22:23:10.313Z,96424.06
2023-01-06T22:25:38.563Z,96422.42
2023-01-06T22:28:06.576Z,96421.56
2023-01-06T22:30:34.748Z,96414.66
2023-01-06T22:33:03.065Z,96411.16
2023-01-06T22:35:31.332Z,96411.06
2023-01-06T22:37:59.497Z,96412.84
2023-01-06T22:40:28.207Z,96410.34
2023-01-06T22:42:57.092Z,96412.85
2023-01-06T22:45:25.554Z,96406.98
2023-01-06T22:47:53.671Z,96406.55
2023-01-06T22:50:21.824Z,96413.39
2023-01-06T22:52:49.914Z,96415.32
2023-01-06T22:55:18.001Z,96419.54
2023-01-06T22:57:46.126Z,96412.99
2023-01-06T23:00:17.600Z,96417.86
2023-01-06T23:02:45.828Z,96418.23
2023-01-06T23:05:14.410Z,96426.02
2023-01-06T23:07:44.104Z,96422.04
2023-01-06T23:10:14.276Z,96423.37
2023-01-06T23:12:42.759Z,96426.63
2023-01-06T23:15:11.673Z,96427.24
2023-01-06T23:17:39.759Z,96428.95
2023-01-06T23:20:08.321Z,96426.73
2023-01-06T23:22:37.338Z,96426.17
2023-01-06T23:25:05.916Z,96427.41
2023-01-06T23:27:33.979Z,96427.76
2023-01-06T23:30:02.090Z,96434.90
2023-01-06T23:32:30.126Z,96435.35
2023-01-06T23:34:58.199Z,96436.84
2023-01-06T23:37:26.238Z,96437.38
2023-01-06T23:39:54.424Z,96439.86
2023-01-06T23:42:22.487Z,96448.08
2023-01-06T23:44:50.486Z,96447.35
2023-01-06T23:47:18.563Z,96450.39
2023-01-06T23:49:49.100Z,96454.04
2023-01-06T23:52:17.338Z,96450.73
2023-01-06T23:54:45.602Z,96454.31
2023-01-06T23:57:14.192Z,96455.35
2023-01-06T23:59:42.230Z,96454.89
